createdAt,value
2019-02-08T00:00:23.430Z,4.27
2019-02-08T00:01:28.681Z,4.28
2019-02-08T00:02:32.586Z,4.31
2019-02-08T00:03:36.571Z,4.33
2019-02-08T00:04:40.539Z,4.36
2019-02-08T00:05:44.958Z,4.38
2019-02-08T00:06:48.943Z,4.38
2019-02-08T00:07:53.012Z,4.38
2019-02-08T00:08:57.006Z,4.40
2019-02-08T00:10:00.963Z,4.42
2019-02-08T00:11:05.578Z,4.48
2019-02-08T00:12:09.721Z,4.49
2019-02-08T00:13:13.930Z,4.45
2019-02-08T00:14:17.903Z,4.42
2019-02-08T00:15:22.283Z,4.45
2019-02-08T00:16:26.363Z,4.47
2019-02-08T00:17:30.258Z,4.46
2019-02-08T00:18:34.228Z,4.40
2019-02-08T00:19:38.580Z,4.42
2019-02-08T00:20:42.546Z,4.43
2019-02-08T00:21:46.722Z,4.37
2019-02-08T00:22:50.707Z,4.34
2019-02-08T00:23:54.843Z,4.33
2019-02-08T00:24:58.994Z,4.40
2019-02-08T00:26:03.202Z,4.30
2019-02-08T00:27:07.205Z,4.28
2019-02-08T00:28:11.154Z,4.28
2019-02-08T00:29:15.122Z,4.23
2019-02-08T00:30:21.015Z,4.22
2019-02-08T00:31:25.142Z,4.23
2019-02-08T00:32:29.133Z,4.23
2019-02-08T00:33:33.262Z,4.22
2019-02-08T00:34:37.433Z,4.28
2019-02-08T00:35:41.579Z,4.29
2019-02-08T00:36:46.064Z,4.33
2019-02-08T00:37:50.378Z,4.26
2019-02-08T00:38:54.591Z,4.24
2019-02-08T00:39:58.509Z,4.23
2019-02-08T00:41:02.465Z,4.25
2019-02-08T00:42:06.702Z,4.23
2019-02-08T00:43:11.159Z,4.25
2019-02-08T00:44:14.996Z,4.23
2019-02-08T00:45:19.339Z,4.22
2019-02-08T00:46:23.235Z,4.23
2019-02-08T00:47:27.391Z,4.23
2019-02-08T00:48:31.787Z,4.25
2019-02-08T00:49:36.231Z,4.25
2019-02-08T00:50:40.627Z,4.23
2019-02-08T00:51:44.603Z,4.25
2019-02-08T00:52:48.843Z,4.36
2019-02-08T00:53:52.816Z,4.27
2019-02-08T00:54:56.969Z,4.23
2019-02-08T00:56:01.688Z,4.28
2019-02-08T00:57:05.939Z,4.25
2019-02-08T00:58:10.092Z,4.27
2019-02-08T00:59:14.236Z,4.17
2019-02-08T01:00:19.054Z,4.16
2019-02-08T01:01:25.792Z,4.18
2019-02-08T01:02:29.777Z,4.17
2019-02-08T01:03:33.745Z,4.20
2019-02-08T01:04:37.995Z,4.23
2019-02-08T01:05:42.730Z,4.18
2019-02-08T01:06:46.944Z,4.14
2019-02-08T01:07:51.343Z,4.20
2019-02-08T01:08:55.317Z,4.16
2019-02-08T01:09:59.533Z,4.15
2019-02-08T01:11:03.670Z,4.23
2019-02-08T01:12:07.888Z,4.30
2019-02-08T01:13:12.131Z,4.27
2019-02-08T01:14:16.109Z,4.17
2019-02-08T01:15:20.707Z,4.16
2019-02-08T01:16:24.944Z,4.26
2019-02-08T01:17:29.013Z,4.19
2019-02-08T01:18:33.184Z,4.17
2019-02-08T01:19:37.514Z,4.18
2019-02-08T01:20:41.999Z,4.20
2019-02-08T01:21:46.237Z,4.25
2019-02-08T01:22:50.598Z,4.32
2019-02-08T01:23:54.737Z,4.28
2019-02-08T01:24:58.960Z,4.33
2019-02-08T01:26:02.926Z,4.32
2019-02-08T01:27:06.822Z,4.33
2019-02-08T01:28:11.052Z,4.33
2019-02-08T01:29:15.019Z,4.33
2019-02-08T01:30:26.609Z,4.34
2019-02-08T01:31:30.578Z,4.34
2019-02-08T01:32:34.478Z,4.32
2019-02-08T01:33:38.462Z,4.35
2019-02-08T01:34:42.359Z,4.36
2019-02-08T01:35:46.336Z,4.41
2019-02-08T01:36:50.542Z,4.42
2019-02-08T01:37:55.837Z,4.43
2019-02-08T01:38:59.751Z,4.31
2019-02-08T01:40:05.327Z,4.27
2019-02-08T01:41:09.793Z,4.26
2019-02-08T01:42:13.690Z,4.25
2019-02-08T01:43:18.071Z,4.29
2019-02-08T01:44:22.293Z,4.32
2019-02-08T01:45:27.858Z,4.33
2019-02-08T01:46:32.083Z,4.32
2019-02-08T01:47:36.051Z,4.38
2019-02-08T01:48:39.959Z,4.39
2019-02-08T01:49:43.859Z,4.39
2019-02-08T01:50:48.080Z,4.39
2019-02-08T01:51:52.218Z,4.37
2019-02-08T01:52:56.425Z,4.36
2019-02-08T01:54:00.518Z,4.38
2019-02-08T01:55:05.309Z,4.35
2019-02-08T01:56:09.520Z,4.36
2019-02-08T01:57:13.657Z,4.38
2019-02-08T01:58:17.638Z,4.41
2019-02-08T01:59:22.047Z,4.46
2019-02-08T02:00:35.162Z,4.41
2019-02-08T02:01:39.393Z,4.40
2019-02-08T02:02:43.609Z,4.42
2019-02-08T02:03:47.835Z,4.43
2019-02-08T02:04:51.806Z,4.46
2019-02-08T02:05:56.029Z,4.50
2019-02-08T02:06:59.855Z,4.53
2019-02-08T02:08:04.770Z,4.56
2019-02-08T02:09:09.216Z,4.61
2019-02-08T02:10:20.542Z,4.66
2019-02-08T02:11:24.442Z,4.68
2019-02-08T02:12:28.519Z,4.71
2019-02-08T02:13:32.475Z,4.75
2019-02-08T02:14:36.694Z,4.77
2019-02-08T02:15:40.867Z,4.81
2019-02-08T02:16:44.768Z,4.86
2019-02-08T02:17:48.741Z,4.90
2019-02-08T02:18:52.727Z,4.93
2019-02-08T02:19:56.942Z,4.96
2019-02-08T02:21:00.775Z,4.99
2019-02-08T02:22:04.868Z,5.04
2019-02-08T02:23:10.250Z,5.07
2019-02-08T02:24:14.486Z,5.12
2019-02-08T02:25:18.980Z,5.16
2019-02-08T02:26:22.747Z,5.22
2019-02-08T02:27:26.650Z,5.23
2019-02-08T02:28:30.864Z,5.26
2019-02-08T02:29:34.776Z,5.29
2019-02-08T02:30:38.750Z,5.31
2019-02-08T02:31:42.968Z,5.33
2019-02-08T02:32:47.175Z,5.35
2019-02-08T02:33:51.393Z,5.43
2019-02-08T02:34:55.617Z,5.45
2019-02-08T02:35:59.588Z,5.45
2019-02-08T02:37:03.946Z,5.48
2019-02-08T02:38:08.044Z,5.45
2019-02-08T02:39:12.029Z,5.45
2019-02-08T02:40:16.460Z,5.41
2019-02-08T02:41:20.602Z,5.35
2019-02-08T02:42:25.066Z,5.34
2019-02-08T02:43:29.131Z,5.36
2019-02-08T02:44:33.289Z,5.33
2019-02-08T02:45:38.356Z,5.30
2019-02-08T02:46:42.438Z,5.32
2019-02-08T02:47:46.337Z,5.34
2019-02-08T02:48:50.319Z,5.31
2019-02-08T02:49:54.798Z,5.32
2019-02-08T02:50:58.763Z,5.34
2019-02-08T02:52:02.739Z,5.37
2019-02-08T02:53:07.065Z,5.34
2019-02-08T02:54:11.202Z,5.33
2019-02-08T02:55:15.978Z,5.40
2019-02-08T02:56:19.877Z,5.39
2019-02-08T02:57:23.775Z,5.36
2019-02-08T02:58:27.748Z,5.34
2019-02-08T02:59:32.543Z,5.30
2019-02-08T03:00:39.325Z,5.29
2019-02-08T03:01:43.641Z,5.28
2019-02-08T03:02:47.617Z,5.27
2019-02-08T03:03:51.587Z,5.28
2019-02-08T03:04:55.417Z,5.28
2019-02-08T03:05:59.309Z,5.27
2019-02-08T03:07:03.288Z,5.31
2019-02-08T03:08:09.518Z,5.27
2019-02-08T03:09:32.614Z,5.24
2019-02-08T03:12:06.795Z,5.21
2019-02-08T03:13:50.259Z,5.18
2019-02-08T03:15:13.573Z,5.18
2019-02-08T03:16:18.085Z,5.15
2019-02-08T03:17:22.294Z,5.18
2019-02-08T03:18:26.266Z,5.13
2019-02-08T03:19:30.485Z,5.05
2019-02-08T03:20:34.500Z,5.05
2019-02-08T03:21:38.495Z,5.07
2019-02-08T03:22:42.971Z,5.05
2019-02-08T03:23:47.105Z,4.94
2019-02-08T03:24:51.338Z,4.90
2019-02-08T03:25:55.237Z,4.92
2019-02-08T03:26:59.406Z,4.95
2019-02-08T03:28:03.645Z,4.88
2019-02-08T03:29:07.858Z,4.71
2019-02-08T03:30:14.586Z,4.84
2019-02-08T03:31:18.463Z,4.81
2019-02-08T03:32:22.925Z,4.83
2019-02-08T03:33:27.250Z,4.84
2019-02-08T03:34:31.261Z,4.81
2019-02-08T03:35:35.503Z,4.84
2019-02-08T03:36:39.477Z,4.87
2019-02-08T03:37:43.442Z,4.87
2019-02-08T03:38:47.416Z,4.85
2019-02-08T03:39:51.630Z,4.94
2019-02-08T03:40:55.541Z,4.95
2019-02-08T03:41:59.505Z,4.92
2019-02-08T03:43:03.479Z,4.89
2019-02-08T03:44:07.452Z,4.95
2019-02-08T03:45:11.584Z,4.91
2019-02-08T03:46:15.796Z,4.94
2019-02-08T03:47:19.689Z,4.93
2019-02-08T03:48:23.680Z,4.96
2019-02-08T03:49:27.806Z,5.00
2019-02-08T03:50:32.033Z,4.94
2019-02-08T03:51:36.246Z,4.96
2019-02-08T03:52:40.485Z,4.92
2019-02-08T03:53:44.463Z,4.89
2019-02-08T03:54:49.638Z,4.92
2019-02-08T03:55:58.299Z,4.95
2019-02-08T03:56:59.467Z,5.01
2019-02-08T03:58:03.906Z,5.06
2019-02-08T03:59:08.123Z,5.07
2019-02-08T04:00:15.655Z,5.07
2019-02-08T04:01:19.643Z,5.19
2019-02-08T04:02:23.539Z,5.09
2019-02-08T04:03:27.749Z,5.06
2019-02-08T04:04:32.084Z,5.07
2019-02-08T04:05:36.314Z,5.17
2019-02-08T04:06:40.729Z,5.15
2019-02-08T04:07:44.699Z,5.16
2019-02-08T04:08:49.167Z,5.20
2019-02-08T04:09:53.305Z,5.22
2019-02-08T04:10:57.536Z,5.32
2019-02-08T04:12:01.506Z,5.32
2019-02-08T04:13:05.476Z,5.31
2019-02-08T04:14:09.445Z,5.29
2019-02-08T04:15:16.117Z,5.34
2019-02-08T04:16:20.098Z,5.39
2019-02-08T04:17:24.071Z,5.37
2019-02-08T04:18:27.966Z,5.31
2019-02-08T04:19:32.176Z,5.29
2019-02-08T04:20:36.401Z,5.29
2019-02-08T04:21:40.372Z,5.29
2019-02-08T04:22:44.459Z,5.33
2019-02-08T04:23:48.349Z,5.35
2019-02-08T04:24:52.240Z,5.36
2019-02-08T04:25:56.228Z,5.39
2019-02-08T04:27:00.443Z,5.42
2019-02-08T04:28:04.933Z,5.47
2019-02-08T04:29:09.003Z,5.51
2019-02-08T04:30:19.620Z,5.58
2019-02-08T04:31:23.700Z,5.61
2019-02-08T04:32:28.021Z,5.65
2019-02-08T04:33:32.085Z,5.68
2019-02-08T04:34:36.053Z,5.74
2019-02-08T04:35:40.515Z,5.76
2019-02-08T04:36:44.928Z,5.82
2019-02-08T04:37:49.052Z,5.87
2019-02-08T04:38:53.017Z,5.91
2019-02-08T04:39:56.918Z,5.96
2019-02-08T04:41:01.067Z,6.02
2019-02-08T04:42:05.273Z,6.09
2019-02-08T04:43:09.833Z,6.12
2019-02-08T04:44:13.728Z,6.13
2019-02-08T04:45:18.158Z,6.17
2019-02-08T04:46:22.316Z,6.22
2019-02-08T04:47:26.451Z,6.30
2019-02-08T04:48:30.546Z,6.32
2019-02-08T04:49:34.519Z,6.35
2019-02-08T04:50:38.590Z,6.37
2019-02-08T04:51:42.662Z,6.37
2019-02-08T04:52:46.826Z,6.36
2019-02-08T04:53:50.993Z,6.38
2019-02-08T04:54:54.956Z,6.38
2019-02-08T04:55:59.098Z,6.38
2019-02-08T04:57:03.062Z,6.38
2019-02-08T04:58:07.277Z,6.39
2019-02-08T04:59:11.731Z,6.41
2019-02-08T05:00:25.158Z,6.42
2019-02-08T05:01:29.384Z,6.41
2019-02-08T05:02:33.354Z,6.40
2019-02-08T05:03:37.832Z,6.40
2019-02-08T05:04:41.965Z,6.40
2019-02-08T05:05:46.176Z,6.42
2019-02-08T05:06:50.327Z,6.42
2019-02-08T05:07:54.546Z,6.44
2019-02-08T05:08:58.747Z,6.44
2019-02-08T05:10:02.712Z,6.46
2019-02-08T05:11:06.604Z,6.48
2019-02-08T05:12:10.749Z,6.48
2019-02-08T05:13:15.457Z,6.48
2019-02-08T05:14:19.662Z,6.48
2019-02-08T05:15:23.732Z,6.46
2019-02-08T05:16:27.947Z,6.43
2019-02-08T05:17:32.088Z,6.42
2019-02-08T05:18:36.225Z,6.41
2019-02-08T05:19:40.435Z,6.40
2019-02-08T05:20:44.570Z,6.40
2019-02-08T05:21:48.697Z,6.40
2019-02-08T05:22:53.120Z,6.40
2019-02-08T05:23:57.014Z,6.39
2019-02-08T05:25:00.988Z,6.41
2019-02-08T05:26:05.208Z,6.41
2019-02-08T05:27:09.420Z,6.40
2019-02-08T05:28:13.580Z,6.43
2019-02-08T05:29:17.544Z,6.46
2019-02-08T05:30:23.846Z,6.50
2019-02-08T05:31:27.738Z,6.47
2019-02-08T05:32:31.962Z,6.47
2019-02-08T05:33:36.031Z,6.50
2019-02-08T05:34:40.081Z,6.49
2019-02-08T05:35:43.976Z,6.50
2019-02-08T05:36:48.117Z,6.51
2019-02-08T05:37:52.458Z,6.53
2019-02-08T05:38:56.593Z,6.55
2019-02-08T05:40:00.738Z,6.57
2019-02-08T05:41:04.949Z,6.60
2019-02-08T05:42:08.847Z,6.62
2019-02-08T05:43:12.830Z,6.65
2019-02-08T05:44:16.971Z,6.66
2019-02-08T05:45:21.384Z,6.70
2019-02-08T05:46:25.277Z,6.72
2019-02-08T05:47:29.346Z,6.73
2019-02-08T05:48:33.334Z,6.77
2019-02-08T05:49:37.298Z,6.77
2019-02-08T05:50:41.506Z,6.79
2019-02-08T05:51:45.652Z,6.80
2019-02-08T05:52:50.099Z,6.80
2019-02-08T05:53:54.459Z,6.83
2019-02-08T05:54:58.429Z,6.84
2019-02-08T05:56:02.327Z,6.84
2019-02-08T05:57:06.387Z,6.83
2019-02-08T05:58:10.612Z,6.85
2019-02-08T05:59:14.822Z,6.87
2019-02-08T06:00:48.881Z,6.86
2019-02-08T06:01:52.897Z,6.87
2019-02-08T06:02:56.943Z,6.92
2019-02-08T06:04:01.114Z,6.97
2019-02-08T06:05:06.296Z,7.01
2019-02-08T06:06:10.504Z,7.02
2019-02-08T06:07:14.729Z,7.04
2019-02-08T06:08:19.154Z,7.06
2019-02-08T06:09:23.137Z,7.07
2019-02-08T06:10:27.360Z,7.11
2019-02-08T06:11:33.042Z,7.09
2019-02-08T06:12:37.099Z,7.14
2019-02-08T06:13:41.176Z,7.15
2019-02-08T06:14:45.146Z,7.16
2019-02-08T06:15:49.302Z,7.20
2019-02-08T06:16:53.250Z,7.24
2019-02-08T06:17:57.458Z,7.24
2019-02-08T06:19:01.683Z,7.26
2019-02-08T06:20:07.250Z,7.31
2019-02-08T06:21:11.468Z,7.32
2019-02-08T06:22:15.291Z,7.35
2019-02-08T06:23:19.272Z,7.39
2019-02-08T06:24:23.421Z,7.39
2019-02-08T06:25:28.307Z,7.42
2019-02-08T06:26:32.497Z,7.45
2019-02-08T06:27:36.714Z,7.47
2019-02-08T06:28:40.626Z,7.50
2019-02-08T06:29:44.839Z,7.51
2019-02-08T06:30:49.049Z,7.53
2019-02-08T06:31:53.008Z,7.55
2019-02-08T06:32:56.985Z,7.56
2019-02-08T06:34:01.520Z,7.58
2019-02-08T06:35:06.484Z,7.59
2019-02-08T06:36:10.453Z,7.60
2019-02-08T06:37:14.800Z,7.60
2019-02-08T06:38:18.780Z,7.62
2019-02-08T06:39:22.746Z,7.66
2019-02-08T06:40:26.862Z,7.66
2019-02-08T06:41:30.830Z,7.69
2019-02-08T06:42:34.798Z,7.69
2019-02-08T06:43:38.939Z,7.70
2019-02-08T06:44:42.841Z,7.72
2019-02-08T06:45:47.060Z,7.72
2019-02-08T06:46:51.197Z,7.73
2019-02-08T06:47:55.519Z,7.79
2019-02-08T06:48:59.757Z,7.81
2019-02-08T06:50:04.889Z,7.81
2019-02-08T06:51:08.788Z,7.82
2019-02-08T06:52:13.003Z,7.82
2019-02-08T06:53:17.266Z,7.83
2019-02-08T06:54:21.177Z,7.85
2019-02-08T06:55:25.147Z,7.86
2019-02-08T06:56:46.858Z,7.89
2019-02-08T06:57:59.849Z,7.90
2019-02-08T06:59:20.225Z,7.91
2019-02-08T07:00:46.464Z,7.96
2019-02-08T07:02:12.420Z,7.94
2019-02-08T07:03:28.240Z,7.96
2019-02-08T07:05:00.353Z,7.97
2019-02-08T07:06:23.520Z,7.98
2019-02-08T07:07:36.288Z,7.98
2019-02-08T07:08:59.502Z,7.99
2019-02-08T07:10:10.726Z,8.00
2019-02-08T07:11:23.613Z,8.03
2019-02-08T07:12:45.203Z,8.04
2019-02-08T07:14:03.144Z,8.06
2019-02-08T07:15:44.980Z,8.08
2019-02-08T07:17:10.469Z,8.07
2019-02-08T07:18:39.119Z,8.10
2019-02-08T07:19:55.081Z,8.14
2019-02-08T07:21:20.812Z,8.14
2019-02-08T07:22:49.289Z,8.15
2019-02-08T07:24:04.506Z,8.13
2019-02-08T07:25:21.460Z,8.13
2019-02-08T07:26:33.106Z,8.13
2019-02-08T07:27:58.887Z,8.14
2019-02-08T07:29:38.721Z,8.15
2019-02-08T07:31:07.473Z,8.16
2019-02-08T07:32:25.805Z,8.17
2019-02-08T07:33:36.107Z,8.16
2019-02-08T07:35:17.335Z,8.17
2019-02-08T07:36:49.244Z,8.19
2019-02-08T07:38:00.283Z,8.18
2019-02-08T07:39:26.104Z,8.18
2019-02-08T07:40:53.772Z,8.19
2019-02-08T07:42:16.388Z,8.19
2019-02-08T07:43:47.348Z,8.21
2019-02-08T07:45:23.043Z,8.22
2019-02-08T07:46:38.176Z,8.22
2019-02-08T07:48:04.356Z,8.24
2019-02-08T07:49:13.551Z,8.25
2019-02-08T07:50:40.141Z,8.27
2019-02-08T07:52:01.629Z,8.26
2019-02-08T07:53:32.201Z,8.28
2019-02-08T07:54:53.798Z,8.30
2019-02-08T07:56:07.863Z,8.33
2019-02-08T07:57:33.689Z,8.36
2019-02-08T07:58:49.760Z,8.38
2019-02-08T08:00:15.837Z,8.43
2019-02-08T08:01:36.177Z,8.45
2019-02-08T08:03:05.682Z,8.51
2019-02-08T08:04:33.038Z,8.53
2019-02-08T08:05:55.869Z,8.56
2019-02-08T08:07:08.609Z,8.59
2019-02-08T08:08:39.135Z,8.61
2019-02-08T08:10:03.046Z,8.64
2019-02-08T08:11:24.833Z,8.62
2019-02-08T08:12:50.356Z,8.59
2019-02-08T08:14:13.488Z,8.56
2019-02-08T08:15:43.862Z,8.51
2019-02-08T08:17:01.173Z,8.48
2019-02-08T08:18:15.865Z,8.47
2019-02-08T08:19:42.649Z,8.45
2019-02-08T08:21:05.993Z,8.45
2019-02-08T08:22:27.181Z,8.48
2019-02-08T08:23:40.644Z,8.51
2019-02-08T08:25:04.170Z,8.55
2019-02-08T08:26:16.134Z,8.58
2019-02-08T08:27:39.632Z,8.60
2019-02-08T08:29:03.276Z,8.64
2019-02-08T08:30:20.299Z,8.66
2019-02-08T08:31:58.417Z,8.67
2019-02-08T08:33:23.693Z,8.64
2019-02-08T08:34:45.744Z,8.64
2019-02-08T08:36:11.882Z,8.64
2019-02-08T08:37:40.421Z,8.63
2019-02-08T08:39:27.244Z,8.64
2019-02-08T08:41:15.945Z,8.63
2019-02-08T08:42:37.665Z,8.63
2019-02-08T08:44:07.720Z,8.60
2019-02-08T08:45:51.006Z,8.59
2019-02-08T08:47:31.073Z,8.57
2019-02-08T08:49:21.020Z,8.57
2019-02-08T08:51:07.990Z,8.55
2019-02-08T08:52:33.943Z,8.55
2019-02-08T08:54:17.621Z,8.56
2019-02-08T08:55:57.115Z,8.58
2019-02-08T08:57:20.619Z,8.62
2019-02-08T08:58:56.238Z,8.65
2019-02-08T09:00:40.442Z,8.67
2019-02-08T09:02:05.305Z,8.70
2019-02-08T09:03:41.205Z,8.75
2019-02-08T09:05:31.474Z,8.79
2019-02-08T09:06:50.452Z,8.84
2019-02-08T09:08:43.227Z,8.87
2019-02-08T09:10:37.217Z,8.89
2019-02-08T09:12:22.319Z,8.92
2019-02-08T09:13:51.272Z,8.96
2019-02-08T09:15:07.212Z,9.02
2019-02-08T09:16:35.129Z,9.07
2019-02-08T09:18:17.384Z,9.08
2019-02-08T09:20:03.345Z,9.14
2019-02-08T09:21:55.733Z,9.16
2019-02-08T09:23:42.195Z,9.19
2019-02-08T09:25:29.018Z,9.21
2019-02-08T09:27:22.943Z,9.25
2019-02-08T09:28:54.244Z,9.27
2019-02-08T09:31:00.262Z,9.30
2019-02-08T09:32:32.592Z,9.31
2019-02-08T09:34:16.164Z,9.36
2019-02-08T09:35:57.520Z,9.38
2019-02-08T09:37:15.324Z,9.43
2019-02-08T09:39:01.049Z,9.47
2019-02-08T09:40:44.246Z,9.49
2019-02-08T09:42:33.866Z,9.57
2019-02-08T09:44:21.488Z,9.66
2019-02-08T09:46:01.120Z,9.78
2019-02-08T09:47:53.773Z,9.86
2019-02-08T09:49:41.329Z,9.93
2019-02-08T09:51:09.293Z,10.00
2019-02-08T09:52:53.282Z,10.08
2019-02-08T09:54:21.804Z,10.17
2019-02-08T09:56:11.829Z,10.29
2019-02-08T09:57:43.178Z,10.42
2019-02-08T09:59:33.505Z,10.52
2019-02-08T10:01:11.599Z,10.60
2019-02-08T10:02:48.765Z,10.69
2019-02-08T10:04:17.260Z,10.78
2019-02-08T10:06:23.173Z,10.84
2019-02-08T10:07:58.281Z,10.90
2019-02-08T10:09:36.966Z,11.00
2019-02-08T10:11:34.423Z,11.10
2019-02-08T10:13:13.925Z,11.19
2019-02-08T10:14:50.517Z,11.29
2019-02-08T10:16:31.032Z,11.36
2019-02-08T10:18:34.581Z,11.44
2019-02-08T10:20:07.944Z,11.54
2019-02-08T10:21:45.361Z,11.65
2019-02-08T10:23:29.080Z,11.72
2019-02-08T10:25:15.737Z,11.76
2019-02-08T10:27:02.593Z,11.79
2019-02-08T10:28:40.728Z,11.80
2019-02-08T10:30:11.573Z,11.78
2019-02-08T10:31:52.425Z,11.76
2019-02-08T10:33:31.879Z,11.77
2019-02-08T10:35:27.414Z,11.80
2019-02-08T10:37:12.863Z,11.80
2019-02-08T10:38:52.499Z,11.85
2019-02-08T10:40:39.661Z,11.88
2019-02-08T10:42:31.164Z,11.94
2019-02-08T10:44:10.677Z,12.02
2019-02-08T10:45:59.294Z,12.08
2019-02-08T10:47:43.405Z,12.13
2019-02-08T10:49:28.925Z,12.16
2019-02-08T10:51:18.502Z,12.15
2019-02-08T10:52:58.546Z,12.19
2019-02-08T10:54:42.045Z,12.20
2019-02-08T10:56:15.293Z,12.20
2019-02-08T10:58:07.056Z,12.21
2019-02-08T10:59:54.361Z,12.23
2019-02-08T11:01:41.520Z,12.28
2019-02-08T11:03:17.929Z,12.36
2019-02-08T11:04:57.508Z,12.35
2019-02-08T11:06:56.326Z,12.39
2019-02-08T11:08:41.120Z,12.41
2019-02-08T11:10:19.917Z,12.43
2019-02-08T11:12:13.794Z,12.45
2019-02-08T11:13:54.548Z,12.45
2019-02-08T11:15:27.211Z,12.46
2019-02-08T11:17:14.016Z,12.44
2019-02-08T11:19:01.452Z,12.38
2019-02-08T11:20:06.858Z,12.34
2019-02-08T11:21:10.817Z,12.35
2019-02-08T11:22:15.040Z,12.35
2019-02-08T11:23:19.269Z,12.35
2019-02-08T11:24:24.773Z,12.37
2019-02-08T11:25:28.741Z,12.41
2019-02-08T11:26:32.728Z,12.40
2019-02-08T11:27:36.867Z,12.47
2019-02-08T11:28:41.064Z,12.38
2019-02-08T11:29:45.064Z,12.34
2019-02-08T11:30:48.883Z,12.31
2019-02-08T11:31:53.113Z,12.33
2019-02-08T11:32:57.172Z,12.34
2019-02-08T11:34:01.143Z,12.36
2019-02-08T11:35:05.974Z,12.40
2019-02-08T11:36:28.392Z,12.47
2019-02-08T11:37:32.380Z,12.52
2019-02-08T11:38:36.618Z,12.59
2019-02-08T11:39:42.025Z,12.64
2019-02-08T11:40:45.999Z,12.69
2019-02-08T11:41:50.543Z,12.70
2019-02-08T11:42:54.770Z,12.72
2019-02-08T11:43:58.737Z,12.74
2019-02-08T11:45:02.874Z,12.75
2019-02-08T11:46:06.841Z,12.77
2019-02-08T11:47:10.827Z,12.78
2019-02-08T11:48:14.796Z,12.80
2019-02-08T11:49:18.764Z,12.83
2019-02-08T11:50:22.748Z,12.85
2019-02-08T11:51:26.569Z,12.88
2019-02-08T11:52:30.793Z,12.89
2019-02-08T11:53:34.752Z,12.91
2019-02-08T11:54:38.970Z,12.92
2019-02-08T11:55:42.790Z,12.92
2019-02-08T11:56:47.001Z,12.91
2019-02-08T11:57:50.915Z,12.94
2019-02-08T11:58:54.814Z,12.90
2019-02-08T11:59:58.706Z,12.89
2019-02-08T12:01:02.681Z,12.88
2019-02-08T12:02:06.677Z,12.91
2019-02-08T12:03:10.737Z,12.92
2019-02-08T12:04:14.946Z,12.96
2019-02-08T12:05:19.161Z,13.00
2019-02-08T12:06:24.081Z,13.03
2019-02-08T12:07:28.031Z,13.05
2019-02-08T12:08:32.493Z,13.10
2019-02-08T12:09:36.478Z,13.15
2019-02-08T12:10:40.687Z,13.18
2019-02-08T12:11:44.918Z,13.23
2019-02-08T12:12:48.825Z,13.29
2019-02-08T12:13:52.966Z,13.33
2019-02-08T12:14:57.226Z,13.37
2019-02-08T12:16:01.709Z,13.38
2019-02-08T12:17:05.671Z,13.42
2019-02-08T12:18:09.894Z,13.44
2019-02-08T12:19:14.109Z,13.47
2019-02-08T12:20:18.421Z,13.49
2019-02-08T12:21:22.623Z,13.54
2019-02-08T12:22:26.588Z,13.58
2019-02-08T12:23:30.835Z,13.63
2019-02-08T12:24:35.550Z,13.67
2019-02-08T12:25:39.764Z,13.69
2019-02-08T12:26:43.985Z,13.72
2019-02-08T12:27:47.962Z,13.74
2019-02-08T12:28:52.036Z,13.74
2019-02-08T12:29:55.926Z,13.74
2019-02-08T12:31:00.137Z,13.75
2019-02-08T12:32:04.477Z,13.77
2019-02-08T12:33:08.438Z,13.80
2019-02-08T12:34:12.684Z,13.82
2019-02-08T12:35:16.888Z,13.87
2019-02-08T12:36:21.277Z,13.92
2019-02-08T12:37:25.246Z,13.97
2019-02-08T12:38:29.421Z,14.01
2019-02-08T12:39:33.621Z,14.05
2019-02-08T12:40:37.836Z,14.11
2019-02-08T12:41:42.490Z,14.14
2019-02-08T12:42:46.963Z,14.19
2019-02-08T12:43:51.195Z,14.23
2019-02-08T12:44:55.329Z,14.28
2019-02-08T12:45:59.717Z,14.34
2019-02-08T12:47:03.870Z,14.39
2019-02-08T12:48:07.838Z,14.44
2019-02-08T12:49:11.752Z,14.47
2019-02-08T12:50:16.380Z,14.48
2019-02-08T12:51:20.276Z,14.48
2019-02-08T12:52:24.416Z,14.46
2019-02-08T12:53:28.626Z,14.43
2019-02-08T12:54:32.608Z,14.44
2019-02-08T12:55:36.845Z,14.45
2019-02-08T12:56:45.411Z,14.49
2019-02-08T12:57:46.654Z,14.48
2019-02-08T12:58:50.485Z,14.39
2019-02-08T12:59:54.721Z,14.33
2019-02-08T13:00:58.929Z,14.30
2019-02-08T13:02:02.821Z,14.27
2019-02-08T13:03:06.802Z,14.26
2019-02-08T13:04:10.775Z,14.24
2019-02-08T13:05:15.067Z,14.22
2019-02-08T13:06:19.209Z,14.20
2019-02-08T13:07:23.683Z,14.17
2019-02-08T13:08:27.889Z,14.13
2019-02-08T13:09:31.861Z,14.09
2019-02-08T13:10:35.841Z,14.06
2019-02-08T13:11:40.441Z,14.04
2019-02-08T13:12:44.409Z,14.01
2019-02-08T13:13:48.229Z,13.98
2019-02-08T13:14:52.141Z,13.93
2019-02-08T13:15:56.358Z,13.88
2019-02-08T13:17:00.256Z,13.84
2019-02-08T13:18:04.226Z,13.82
2019-02-08T13:19:08.538Z,13.78
2019-02-08T13:20:14.776Z,13.74
2019-02-08T13:21:18.909Z,13.69
2019-02-08T13:22:23.296Z,13.65
2019-02-08T13:23:27.201Z,13.62
2019-02-08T13:24:31.170Z,13.58
2019-02-08T13:25:35.149Z,13.56
2019-02-08T13:26:39.117Z,13.54
2019-02-08T13:27:43.187Z,13.50
2019-02-08T13:29:06.376Z,13.47
2019-02-08T13:30:52.731Z,13.44
2019-02-08T13:33:58.393Z,13.38
2019-02-08T13:35:21.867Z,13.33
2019-02-08T13:36:45.510Z,13.29
2019-02-08T13:37:49.738Z,13.27
2019-02-08T13:38:53.879Z,13.24
2019-02-08T13:39:58.038Z,13.22
2019-02-08T13:41:02.096Z,13.20
2019-02-08T13:42:06.154Z,13.21
2019-02-08T13:43:09.964Z,13.20
2019-02-08T13:44:13.785Z,13.17
2019-02-08T13:45:17.865Z,13.18
2019-02-08T13:46:22.000Z,13.15
2019-02-08T13:47:26.201Z,13.13
2019-02-08T13:48:30.415Z,13.17
2019-02-08T13:49:34.257Z,13.14
2019-02-08T13:50:38.398Z,13.15
2019-02-08T13:51:42.533Z,13.14
2019-02-08T13:52:46.746Z,13.16
2019-02-08T13:53:50.636Z,13.19
2019-02-08T13:54:54.845Z,13.21
2019-02-08T13:55:59.006Z,13.26
2019-02-08T13:57:03.851Z,13.29
2019-02-08T13:58:08.056Z,13.34
2019-02-08T13:59:12.271Z,13.38
2019-02-08T14:00:22.350Z,13.42
2019-02-08T14:01:26.342Z,13.45
2019-02-08T14:02:30.160Z,13.48
2019-02-08T14:03:34.128Z,13.50
2019-02-08T14:04:38.256Z,13.50
2019-02-08T14:05:42.246Z,13.54
2019-02-08T14:06:46.722Z,13.56
2019-02-08T14:07:50.932Z,13.57
2019-02-08T14:08:55.074Z,13.57
2019-02-08T14:09:59.289Z,13.59
2019-02-08T14:11:03.146Z,13.60
2019-02-08T14:12:07.361Z,13.61
2019-02-08T14:13:11.571Z,13.60
2019-02-08T14:14:15.465Z,13.58
2019-02-08T14:15:21.162Z,13.58
2019-02-08T14:16:25.148Z,13.58
2019-02-08T14:17:29.533Z,13.61
2019-02-08T14:18:33.673Z,13.63
2019-02-08T14:19:37.820Z,13.64
2019-02-08T14:20:42.352Z,13.68
2019-02-08T14:21:46.259Z,13.67
2019-02-08T14:22:50.464Z,13.67
2019-02-08T14:23:54.711Z,13.68
2019-02-08T14:24:59.478Z,13.66
2019-02-08T14:26:04.126Z,13.68
2019-02-08T14:27:08.876Z,13.70
2019-02-08T14:28:13.408Z,13.70
2019-02-08T14:29:17.593Z,13.72
2019-02-08T14:30:33.324Z,13.75
2019-02-08T14:31:37.882Z,13.77
2019-02-08T14:32:42.089Z,13.78
2019-02-08T14:33:45.929Z,13.78
2019-02-08T14:34:50.144Z,13.79
2019-02-08T14:35:55.856Z,13.79
2019-02-08T14:37:00.095Z,13.79
2019-02-08T14:38:06.804Z,13.78
2019-02-08T14:39:11.932Z,13.75
2019-02-08T14:40:18.274Z,13.73
2019-02-08T14:41:22.337Z,13.72
2019-02-08T14:42:26.165Z,13.71
2019-02-08T14:43:30.232Z,13.70
2019-02-08T14:44:34.372Z,13.67
2019-02-08T14:45:38.353Z,13.65
2019-02-08T14:46:42.571Z,13.64
2019-02-08T14:47:46.562Z,13.64
2019-02-08T14:48:50.777Z,13.64
2019-02-08T14:49:54.990Z,13.64
2019-02-08T14:50:58.886Z,13.64
2019-02-08T14:52:02.874Z,13.65
2019-02-08T14:53:07.220Z,13.65
2019-02-08T14:54:11.489Z,13.67
2019-02-08T14:55:16.483Z,13.70
2019-02-08T14:56:20.526Z,13.72
2019-02-08T14:57:24.749Z,13.75
2019-02-08T14:58:28.716Z,13.77
2019-02-08T14:59:32.777Z,13.78
2019-02-08T15:00:37.237Z,13.79
2019-02-08T15:01:41.376Z,13.79
2019-02-08T15:02:45.357Z,13.77
2019-02-08T15:03:49.751Z,13.75
2019-02-08T15:04:53.874Z,13.74
2019-02-08T15:05:58.085Z,13.72
2019-02-08T15:07:02.570Z,13.69
2019-02-08T15:08:06.817Z,13.68
2019-02-08T15:09:11.489Z,13.65
2019-02-08T15:10:18.746Z,13.61
2019-02-08T15:11:23.210Z,13.57
2019-02-08T15:12:27.440Z,13.53
2019-02-08T15:13:31.683Z,13.49
2019-02-08T15:14:35.897Z,13.44
2019-02-08T15:15:40.210Z,13.40
2019-02-08T15:16:44.421Z,13.36
2019-02-08T15:17:48.892Z,13.33
2019-02-08T15:18:52.713Z,13.30
2019-02-08T15:19:57.977Z,13.28
2019-02-08T15:21:02.156Z,13.23
2019-02-08T15:22:06.626Z,13.20
2019-02-08T15:23:10.874Z,13.16
2019-02-08T15:24:14.782Z,13.14
2019-02-08T15:25:19.540Z,13.11
2019-02-08T15:26:23.511Z,13.08
2019-02-08T15:27:27.477Z,13.03
2019-02-08T15:28:31.387Z,12.99
2019-02-08T15:29:35.619Z,12.96
2019-02-08T15:30:40.085Z,12.91
2019-02-08T15:31:44.142Z,12.89
2019-02-08T15:32:48.112Z,12.87
2019-02-08T15:33:52.262Z,12.84
2019-02-08T15:34:56.163Z,12.83